Time;durP1;ratioP1;P1;durP2;ratioP2;P2;SDS_P1;SDS_P2;PMS_P1;PMS_P2;Temp;Humidity;BMP_temperature;BMP_pressure;BME280_temperature;BME280_humidity;BME280_pressure;Samples;Min_cycle;Max_cycle;Signal;HPM_P1;HPM_P2
2022/02/17 00:00:16;;;;;;;42.42;18.65;;;;;;;3.60;98.02;96826.91;5065650;28;20048;-59
2022/02/17 00:02:44;;;;;;;52.60;20.35;;;;;;;3.29;97.81;96774.38;5065673;28;20045;-61
2022/02/17 00:05:13;;;;;;;47.30;19.58;;;;;;;3.62;97.39;96824.59;5066911;28;20049;-60
2022/02/17 00:07:40;;;;;;;45.35;17.92;;;;;;;3.08;97.38;96746.19;5067151;28;20086;-59
2022/02/17 00:10:07;;;;;;;41.53;16.33;;;;;;;3.39;97.86;96823.28;5067562;28;20124;-58
2022/02/17 00:12:35;;;;;;;39.17;15.52;;;;;;;3.39;98.10;96812.34;5065050;28;20423;-59
2022/02/17 00:15:04;;;;;;;36.30;15.40;;;;;;;3.37;98.39;96820.06;5066321;28;20060;-59
2022/02/17 00:17:30;;;;;;;44.53;17.08;;;;;;;3.31;98.07;96815.94;5066548;28;20085;-58
2022/02/17 00:19:57;;;;;;;40.78;16.50;;;;;;;3.32;98.56;96812.03;5066584;28;20048;-59
2022/02/17 00:22:24;;;;;;;41.00;16.00;;;;;;;3.18;99.00;96784.09;5066550;28;20044;-60
2022/02/17 00:24:51;;;;;;;42.90;15.77;;;;;;;2.92;99.86;96750.59;5066885;28;20490;-58
2022/02/17 00:27:18;;;;;;;35.80;15.43;;;;;;;2.93;100.00;96763.13;5066640;28;20059;-59
2022/02/17 00:29:45;;;;;;;33.78;14.68;;;;;;;3.28;100.00;96805.63;5066359;28;20048;-59
2022/02/17 00:32:12;;;;;;;33.90;14.85;;;;;;;3.26;100.00;96796.94;5066163;28;21354;-58
2022/02/17 00:34:38;;;;;;;33.67;14.48;;;;;;;3.21;100.00;96788.91;5066919;28;20314;-58
2022/02/17 00:37:05;;;;;;;33.35;15.25;;;;;;;3.14;100.00;96794.13;5066819;28;20048;-59
2022/02/17 00:39:34;;;;;;;38.30;16.30;;;;;;;3.23;100.00;96794.88;5064317;28;20059;-59
2022/02/17 00:42:02;;;;;;;41.00;15.63;;;;;;;3.21;100.00;96808.06;5066436;28;20091;-59
2022/02/17 00:44:29;;;;;;;44.25;18.23;;;;;;;3.16;100.00;96805.53;5064657;28;20064;-60
2022/02/17 00:46:57;;;;;;;40.13;18.00;;;;;;;3.13;100.00;96803.44;5063820;28;20062;-59
2022/02/17 00:49:26;;;;;;;47.65;19.05;;;;;;;3.15;100.00;96805.88;5086039;28;20052;-60
2022/02/17 00:51:54;;;;;;;56.42;20.92;;;;;;;3.08;100.00;96798.16;5084623;28;20060;-58
2022/02/17 00:54:23;;;;;;;52.10;21.75;;;;;;;3.06;100.00;96786.75;5073524;28;20121;-60
2022/02/17 00:56:50;;;;;;;52.88;22.20;;;;;;;2.78;100.00;96764.47;5086386;28;20467;-58
2022/02/17 00:59:16;;;;;;;46.53;19.65;;;;;;;3.18;98.53;96795.06;5086309;28;20477;-58
2022/02/17 01:01:46;;;;;;;38.72;17.90;;;;;;;3.11;98.61;96805.72;5086185;28;20530;-58
2022/02/17 01:04:17;;;;;;;37.97;15.93;;;;;;;3.04;99.38;96789.81;5086225;28;20055;-59
2022/02/17 01:06:45;;;;;;;31.58;15.45;;;;;;;2.95;100.00;96804.66;5085860;28;20048;-59
2022/02/17 01:09:13;;;;;;;36.63;14.98;;;;;;;2.75;100.00;96753.41;5086094;28;20120;-60
2022/02/17 01:11:40;;;;;;;37.85;15.38;;;;;;;2.99;100.00;96772.75;5085533;28;20078;-58
2022/02/17 01:14:07;;;;;;;41.75;16.88;;;;;;;2.99;98.80;96775.50;5085954;28;20052;-58
2022/02/17 01:16:34;;;;;;;36.85;16.23;;;;;;;3.03;96.99;96776.47;5084640;28;20048;-59
2022/02/17 01:19:01;;;;;;;36.58;16.63;;;;;;;2.92;98.00;96769.75;5086014;28;20066;-59
2022/02/17 01:21:30;;;;;;;38.83;16.60;;;;;;;2.51;98.58;96720.38;5085938;28;20052;-59
2022/02/17 01:23:56;;;;;;;39.80;17.30;;;;;;;2.73;98.08;96742.00;5085370;28;20059;-58
2022/02/17 01:26:24;;;;;;;42.78;16.85;;;;;;;2.91;98.67;96774.41;5085951;28;20097;-58
2022/02/17 01:28:50;;;;;;;40.88;16.50;;;;;;;2.62;99.45;96732.53;5085241;28;20060;-61
2022/02/17 01:31:18;;;;;;;37.20;15.80;;;;;;;2.62;100.00;96716.13;5085953;28;20060;-59
2022/02/17 01:33:45;;;;;;;36.97;15.30;;;;;;;2.79;100.00;96822.72;5085769;28;20059;-59
2022/02/17 01:36:12;;;;;;;48.80;17.52;;;;;;;2.86;100.00;96738.25;5086071;28;20044;-59
2022/02/17 01:38:41;;;;;;;42.97;16.80;;;;;;;2.71;100.00;96719.63;5085170;28;20044;-56
2022/02/17 01:41:08;;;;;;;36.92;14.40;;;;;;;2.41;100.00;96696.09;5085680;28;20051;-56
2022/02/17 01:43:36;;;;;;;34.78;14.90;;;;;;;2.84;100.00;96735.84;5085095;28;20477;-61
2022/02/17 01:46:05;;;;;;;39.45;16.42;;;;;;;2.83;99.87;96736.13;5085017;28;20495;-58
2022/02/17 01:48:32;;;;;;;41.08;16.83;;;;;;;2.81;99.15;96746.63;5085150;28;20062;-60
2022/02/17 01:50:59;;;;;;;46.88;19.50;;;;;;;2.82;98.62;96738.09;5085278;28;20044;-61
2022/02/17 01:53:26;;;;;;;50.10;19.23;;;;;;;2.54;98.91;96719.69;5085230;28;20048;-59
2022/02/17 01:55:55;;;;;;;45.65;18.10;;;;;;;2.68;97.41;96714.81;5084826;28;20056;-61
2022/02/17 01:58:22;;;;;;;46.90;19.20;;;;;;;2.83;96.16;96755.28;5083264;28;20048;-60
2022/02/17 02:00:49;;;;;;;45.45;18.20;;;;;;;2.65;98.14;96735.44;5084752;28;20055;-59
2022/02/17 02:03:16;;;;;;;45.90;18.33;;;;;;;2.58;98.75;96740.59;5085145;28;20052;-59
2022/02/17 02:05:42;;;;;;;42.60;17.60;;;;;;;2.28;99.14;96689.72;5084903;28;20048;-57
2022/02/17 02:08:10;;;;;;;40.15;17.02;;;;;;;2.26;99.91;96694.69;5084784;28;20048;-57
2022/02/17 02:10:37;;;;;;;41.50;18.10;;;;;;;2.66;99.95;96736.22;5085328;28;20048;-57
2022/02/17 02:13:05;;;;;;;45.30;18.27;;;;;;;2.53;99.59;96731.78;5084724;28;20063;-57
2022/02/17 02:15:52;;;;;;;43.83;19.40;;;;;;;2.56;100.00;96734.63;5085103;28;20055;-57
2022/02/17 02:18:20;;;;;;;44.00;17.77;;;;;;;2.50;100.00;96730.47;5084812;28;20054;-57
2022/02/17 02:20:51;;;;;;;46.47;18.52;;;;;;;2.61;100.00;96719.97;5084206;28;20056;-60
2022/02/17 02:23:18;;;;;;;42.08;16.42;;;;;;;2.12;100.00;96641.41;5083465;28;20055;-58
2022/02/17 02:25:51;;;;;;;43.25;16.75;;;;;;;2.46;100.00;96718.63;5082555;28;20055;-58
2022/02/17 02:28:26;;;;;;;40.55;16.65;;;;;;;2.43;100.00;96718.44;5085015;28;20062;-57
2022/02/17 02:30:54;;;;;;;39.20;16.17;;;;;;;2.60;100.00;96712.91;5084457;28;20051;-59
2022/02/17 02:33:21;;;;;;;34.92;15.18;;;;;;;2.20;100.00;96662.41;5082800;28;20113;-57
2022/02/17 02:35:49;;;;;;;39.83;14.93;;;;;;;2.34;100.00;96698.56;5082618;28;20048;-57
2022/02/17 02:38:17;;;;;;;36.25;15.10;;;;;;;2.52;100.00;96736.44;5084300;28;20472;-58
2022/02/17 02:40:43;;;;;;;41.53;14.82;;;;;;;2.57;100.00;96725.31;5083789;28;20537;-58
2022/02/17 02:43:11;;;;;;;39.67;15.10;;;;;;;2.58;100.00;96717.91;5084375;28;20239;-57
2022/02/17 02:45:38;;;;;;;33.97;13.20;;;;;;;2.70;100.00;96729.75;5084398;28;20138;-57
2022/02/17 02:48:07;;;;;;;35.28;15.15;;;;;;;2.80;100.00;96717.66;5082835;28;20495;-56
2022/02/17 02:50:35;;;;;;;31.77;13.65;;;;;;;2.69;100.00;96714.50;5084173;28;20449;-59
2022/02/17 02:53:03;;;;;;;35.53;14.80;;;;;;;2.56;100.00;96712.78;5083935;28;20052;-57
2022/02/17 02:55:30;;;;;;;34.90;13.70;;;;;;;2.52;100.00;96689.16;5084346;28;20051;-57
2022/02/17 02:58:00;;;;;;;39.05;16.17;;;;;;;2.78;100.00;96731.66;5084291;28;20055;-56
2022/02/17 03:00:27;;;;;;;37.55;15.57;;;;;;;2.76;100.00;96744.06;5083739;28;20067;-57
2022/02/17 03:02:54;;;;;;;30.83;13.02;;;;;;;2.84;100.00;96724.09;5084154;28;20162;-56
2022/02/17 03:05:21;;;;;;;31.27;12.23;;;;;;;2.80;100.00;96723.13;5083283;28;20549;-57
2022/02/17 03:07:47;;;;;;;36.40;13.23;;;;;;;2.27;100.00;96665.44;5081546;28;20048;-59
2022/02/17 03:10:14;;;;;;;35.95;12.52;;;;;;;2.44;100.00;96720.84;5083565;28;20044;-56
2022/02/17 03:12:42;;;;;;;35.97;14.75;;;;;;;2.78;100.00;96730.88;5082558;28;20237;-56
2022/02/17 03:15:10;;;;;;;30.20;13.63;;;;;;;2.82;100.00;96727.16;5082334;28;20055;-56
2022/02/17 03:17:37;;;;;;;37.83;17.35;;;;;;;2.77;100.00;96734.72;5083768;28;20052;-57
2022/02/17 03:20:07;;;;;;;34.03;14.60;;;;;;;2.76;100.00;96741.34;5083557;28;20055;-60
2022/02/17 03:22:39;;;;;;;55.35;23.75;;;;;;;2.44;100.00;96737.25;5083697;28;20078;-57
2022/02/17 03:25:12;;;;;;;65.53;24.17;;;;;;;2.68;100.00;96733.97;5083192;28;20060;-57
2022/02/17 03:27:38;;;;;;;99.40;37.15;;;;;;;2.70;100.00;96735.22;5082454;28;20056;-59
2022/02/17 03:30:08;;;;;;;92.93;35.22;;;;;;;2.76;100.00;96733.13;5083669;28;20051;-56
2022/02/17 03:32:36;;;;;;;86.82;33.72;;;;;;;2.76;100.00;96733.13;5083401;28;20056;-56
2022/02/17 03:35:06;;;;;;;82.03;31.23;;;;;;;2.68;100.00;96731.22;5087958;28;20324;-57
2022/02/17 03:37:34;;;;;;;76.03;24.55;;;;;;;2.06;100.00;96659.88;5087894;28;20052;-58
2022/02/17 03:40:00;;;;;;;59.38;20.90;;;;;;;2.34;100.00;96682.94;5086521;28;20063;-57
2022/02/17 03:42:27;;;;;;;50.50;18.60;;;;;;;2.65;100.00;96720.94;5087683;28;20080;-58
2022/02/17 03:44:54;;;;;;;44.80;19.20;;;;;;;2.58;100.00;96715.16;5087784;28;20154;-57
2022/02/17 03:47:21;;;;;;;36.00;16.83;;;;;;;2.32;100.00;96712.53;5087395;28;20051;-59
2022/02/17 03:49:47;;;;;;;33.88;15.63;;;;;;;1.85;100.00;96644.53;5086866;28;20052;-57
2022/02/17 03:52:14;;;;;;;44.92;19.00;;;;;;;2.41;100.00;96720.69;5087658;28;20066;-57
2022/02/17 03:54:41;;;;;;;43.65;19.20;;;;;;;2.38;100.00;96726.81;5087020;28;20046;-59
2022/02/17 03:57:08;;;;;;;44.25;19.80;;;;;;;2.33;100.00;96727.00;5087538;28;20052;-57
2022/02/17 03:59:34;;;;;;;137.25;53.53;;;;;;;2.36;100.00;96720.88;5086907;28;20063;-57
2022/02/17 04:02:01;;;;;;;77.70;30.40;;;;;;;2.34;100.00;96725.88;5087250;28;20499;-57
2022/02/17 04:04:28;;;;;;;99.05;32.25;;;;;;;2.10;100.00;96699.09;5086771;28;20131;-58
2022/02/17 04:06:57;;;;;;;110.97;35.92;;;;;;;2.26;100.00;96723.97;5085832;28;20072;-56
2022/02/17 04:09:24;;;;;;;99.97;32.97;;;;;;;2.17;100.00;96709.50;5087045;28;20048;-57
2022/02/17 04:11:51;;;;;;;96.97;35.08;;;;;;;2.29;100.00;96717.84;5087007;28;20067;-58
2022/02/17 04:14:17;;;;;;;108.82;32.42;;;;;;;1.96;100.00;96653.97;5086128;28;20083;-57
2022/02/17 04:16:44;;;;;;;83.35;27.98;;;;;;;1.63;100.00;96606.50;5086859;28;20070;-56
2022/02/17 04:19:11;;;;;;;62.38;21.92;;;;;;;2.17;100.00;96712.22;5086410;28;20048;-59
2022/02/17 04:21:38;;;;;;;41.92;17.27;;;;;;;2.13;100.00;96692.97;5085388;28;20056;-57
2022/02/17 04:24:05;;;;;;;39.35;15.73;;;;;;;2.15;100.00;96717.25;5086550;28;20056;-57
2022/02/17 04:26:32;;;;;;;41.85;16.20;;;;;;;1.58;100.00;96627.38;5087095;28;20237;-56
2022/02/17 04:28:59;;;;;;;66.18;24.60;;;;;;;2.15;100.00;96718.03;5086759;28;20052;-57
2022/02/17 04:31:27;;;;;;;58.28;25.33;;;;;;;2.27;100.00;96709.16;5086278;28;20554;-56
2022/02/17 04:33:54;;;;;;;53.35;25.08;;;;;;;2.14;100.00;96705.50;5086483;28;20063;-56
2022/02/17 04:36:21;;;;;;;58.67;26.33;;;;;;;1.98;100.00;96684.47;5086460;28;20048;-57
2022/02/17 04:38:48;;;;;;;61.85;24.25;;;;;;;2.08;100.00;96695.06;5086864;28;20055;-58
2022/02/17 04:44:00;;;;;;;56.83;22.40;;;;;;;1.52;100.00;96590.47;5086290;28;20052;-57
2022/02/17 04:46:27;;;;;;;58.25;23.30;;;;;;;2.03;100.00;96681.56;5084160;28;20169;-57
2022/02/17 04:48:54;;;;;;;57.88;23.23;;;;;;;1.66;100.00;96605.84;5086265;28;20059;-60
2022/02/17 04:51:21;;;;;;;55.72;21.92;;;;;;;2.12;100.00;96674.19;5086276;28;20052;-57
2022/02/17 04:53:48;;;;;;;58.85;23.67;;;;;;;2.24;100.00;96671.56;5086278;28;20055;-57
2022/02/17 04:56:14;;;;;;;64.97;25.17;;;;;;;1.47;100.00;96543.47;5086403;28;20142;-57
2022/02/17 04:58:41;;;;;;;87.05;33.22;;;;;;;1.95;100.00;96652.34;5084890;28;20056;-56
2022/02/17 05:01:08;;;;;;;80.63;32.20;;;;;;;2.05;100.00;96679.34;5086281;28;20434;-58
2022/02/17 05:03:35;;;;;;;108.90;39.10;;;;;;;1.98;100.00;96684.47;5086065;28;20513;-58
2022/02/17 05:06:02;;;;;;;70.00;28.20;;;;;;;1.90;100.00;96688.03;5086151;28;20497;-57
2022/02/17 05:08:31;;;;;;;58.22;23.77;;;;;;;1.93;100.00;96677.25;5084416;28;20052;-57
2022/02/17 05:10:58;;;;;;;56.60;24.45;;;;;;;1.92;100.00;96674.84;5086053;28;20174;-57
2022/02/17 05:13:25;;;;;;;55.35;21.67;;;;;;;1.66;100.00;96608.59;5085772;28;20446;-57
2022/02/17 05:15:52;;;;;;;69.10;26.63;;;;;;;2.11;100.00;96669.84;5086063;28;20048;-59
2022/02/17 05:18:19;;;;;;;65.93;26.25;;;;;;;2.13;100.00;96667.59;5085041;28;20510;-58
2022/02/17 05:20:46;;;;;;;83.63;33.70;;;;;;;1.74;100.00;96626.88;5086077;28;20056;-57
2022/02/17 05:23:13;;;;;;;78.00;31.50;;;;;;;2.24;100.00;96674.31;5085654;28;20063;-57
2022/02/17 05:25:39;;;;;;;95.90;38.53;;;;;;;2.12;100.00;96663.25;5084133;28;20458;-57
2022/02/17 05:28:08;;;;;;;92.95;39.28;;;;;;;1.56;100.00;96575.03;5085663;28;20472;-58
2022/02/17 05:30:40;;;;;;;108.93;43.38;;;;;;;2.30;100.00;96681.19;5084397;28;20062;-57
2022/02/17 05:33:12;;;;;;;82.90;35.88;;;;;;;2.12;100.00;96653.13;5085159;28;20557;-58
2022/02/17 05:35:39;;;;;;;76.93;33.42;;;;;;;1.88;100.00;96597.44;5085283;28;20052;-58
2022/02/17 05:38:07;;;;;;;74.18;33.25;;;;;;;2.46;100.00;96671.34;5084272;28;20053;-56
2022/02/17 05:40:35;;;;;;;64.93;26.75;;;;;;;2.57;100.00;96676.13;5085393;28;20082;-59
2022/02/17 05:43:03;;;;;;;55.80;23.30;;;;;;;2.35;100.00;96645.50;5085472;28;20208;-58
2022/02/17 05:45:30;;;;;;;62.38;23.65;;;;;;;2.53;100.00;96657.97;5081200;28;20044;-58
2022/02/17 05:47:57;;;;;;;57.33;24.67;;;;;;;2.70;100.00;96652.41;5063997;28;20474;-58
2022/02/17 05:50:24;;;;;;;66.60;26.55;;;;;;;2.80;99.87;96641.09;5063503;28;20055;-67
2022/02/17 05:52:51;;;;;;;76.70;30.63;;;;;;;0.41;99.48;96254.56;5066535;28;20530;-64
2022/02/17 05:55:18;;;;;;;102.03;41.45;;;;;;;3.03;98.62;96634.22;5072098;28;20405;-60
2022/02/17 05:57:48;;;;;;;93.47;41.40;;;;;;;2.86;99.98;96634.31;5064709;28;20080;-60
2022/02/17 06:00:16;;;;;;;127.70;49.85;;;;;;;3.04;99.86;96638.53;5084811;28;20052;-63
2022/02/17 06:02:43;;;;;;;123.20;51.55;;;;;;;3.10;99.82;96637.19;5083424;28;20144;-58
2022/02/17 06:05:10;;;;;;;94.57;38.50;;;;;;;3.02;100.00;96640.78;5084914;28;20389;-59
2022/02/17 06:07:37;;;;;;;73.78;31.73;;;;;;;3.02;100.00;96635.31;5084666;28;20059;-61
2022/02/17 06:10:05;;;;;;;71.40;30.13;;;;;;;3.30;99.94;96660.25;5084590;28;20529;-61
2022/02/17 06:12:39;;;;;;;64.25;25.88;;;;;;;3.35;98.44;96673.75;5084511;28;20081;-59
2022/02/17 06:15:06;;;;;;;62.28;28.80;;;;;;;3.34;96.16;96634.63;5084739;28;20059;-61
2022/02/17 06:17:32;;;;;;;64.90;24.98;;;;;;;3.23;93.69;96603.31;5082586;28;20048;-61
2022/02/17 06:19:59;;;;;;;79.15;32.42;;;;;;;3.51;94.18;96664.59;5084534;28;20048;-59
2022/02/17 06:22:26;;;;;;;69.60;30.63;;;;;;;3.43;95.03;96649.03;5084188;28;20047;-60
2022/02/17 06:24:54;;;;;;;54.33;25.17;;;;;;;3.23;94.70;96636.16;5082624;28;20092;-62
2022/02/17 06:27:21;;;;;;;61.35;25.50;;;;;;;2.95;95.46;96583.09;5084063;28;20551;-60
2022/02/17 06:29:47;;;;;;;54.67;21.75;;;;;;;3.57;95.32;96638.63;5083876;28;20063;-59
2022/02/17 06:32:14;;;;;;;47.63;19.85;;;;;;;3.66;95.44;96641.28;5082849;28;20056;-58
2022/02/17 06:34:41;;;;;;;56.90;20.85;;;;;;;3.69;95.90;96635.94;5084568;28;20093;-59
2022/02/17 06:37:07;;;;;;;47.80;19.85;;;;;;;3.79;96.31;96638.25;5082354;28;20056;-62
2022/02/17 06:39:34;;;;;;;49.90;20.05;;;;;;;3.89;95.66;96635.09;5084226;28;20062;-62
2022/02/17 06:42:01;;;;;;;55.58;25.17;;;;;;;4.06;95.71;96637.66;5083318;28;20494;-59
2022/02/17 06:44:27;;;;;;;78.60;34.85;;;;;;;4.10;94.61;96613.94;5070144;28;20055;-64
2022/02/17 06:46:55;;;;;;;68.57;31.25;;;;;;;4.42;94.61;96632.28;5073181;28;20056;-64
2022/02/17 06:49:22;;;;;;;70.40;29.75;;;;;;;4.80;93.42;96633.88;5072664;28;20040;-58
2022/02/17 06:51:49;;;;;;;66.20;27.55;;;;;;;4.68;93.29;96590.78;5074126;28;20147;-57
2022/02/17 06:54:15;;;;;;;59.92;26.95;;;;;;;5.01;91.88;96598.88;5075058;28;20050;-62
2022/02/17 06:56:42;;;;;;;62.67;27.83;;;;;;;5.38;91.57;96614.13;5071680;28;20044;-57
2022/02/17 06:59:09;;;;;;;60.83;25.45;;;;;;;5.17;89.23;96534.66;5072660;28;20048;-63
2022/02/17 07:01:35;;;;;;;53.40;24.10;;;;;;;5.83;87.39;96612.72;5082465;28;20577;-56
2022/02/17 07:04:04;;;;;;;61.40;25.30;;;;;;;6.01;88.03;96610.47;5083339;28;20287;-62
2022/02/17 07:06:31;;;;;;;55.90;24.50;;;;;;;6.22;87.16;96604.75;5083432;28;20044;-62
2022/02/17 07:08:57;;;;;;;57.28;24.77;;;;;;;6.38;86.65;96603.63;5079170;28;20040;-55
2022/02/17 07:11:24;;;;;;;56.25;24.00;;;;;;;6.61;86.21;96598.31;5062427;28;20052;-58
2022/02/17 07:13:51;;;;;;;48.75;25.08;;;;;;;6.34;84.99;96525.69;5065753;28;20058;-57
2022/02/17 07:16:18;;;;;;;52.28;24.63;;;;;;;6.45;83.33;96503.97;5081789;28;20056;-57
2022/02/17 07:18:46;;;;;;;54.33;24.35;;;;;;;7.15;82.87;96594.50;5074464;28;20465;-62
2022/02/17 07:21:12;;;;;;;50.72;22.00;;;;;;;7.21;82.56;96604.06;5073969;28;20052;-64
2022/02/17 07:23:41;;;;;;;48.58;22.58;;;;;;;7.27;83.24;96586.09;5067805;28;20048;-57
2022/02/17 07:26:11;;;;;;;45.58;20.30;;;;;;;7.57;82.43;96611.16;5084338;28;20052;-65
2022/02/17 07:28:38;;;;;;;52.97;24.65;;;;;;;7.80;80.73;96600.19;5074595;28;20051;-57
2022/02/17 07:31:07;;;;;;;51.15;23.27;;;;;;;7.26;81.27;96507.38;5065190;28;20123;-62
2022/02/17 07:33:34;;;;;;;48.83;23.17;;;;;;;8.15;80.64;96587.13;5071981;28;20174;-62
2022/02/17 07:36:01;;;;;;;47.10;23.23;;;;;;;8.39;80.18;96581.28;5071061;28;20485;-62
2022/02/17 07:38:49;;;;;;;45.35;22.35;;;;;;;8.66;78.24;96574.66;5069173;28;20051;-57
2022/02/17 07:41:16;;;;;;;55.03;25.85;;;;;;;8.69;77.46;96584.97;5071412;28;20048;-61
2022/02/17 07:43:43;;;;;;;59.30;26.83;;;;;;;8.93;77.89;96634.28;5078538;28;20631;-63
2022/02/17 07:46:12;;;;;;;48.28;22.60;;;;;;;8.89;77.41;96525.72;5070536;28;20052;-62
2022/02/17 07:48:39;;;;;;;51.13;24.80;;;;;;;9.34;76.99;96561.50;5074527;28;20044;-62
2022/02/17 07:51:06;;;;;;;45.40;23.27;;;;;;;9.54;76.56;96560.19;5066873;28;20118;-63
2022/02/17 07:53:34;;;;;;;43.42;22.75;;;;;;;9.54;76.03;96538.06;5079590;28;20123;-62
2022/02/17 07:56:01;;;;;;;47.47;24.48;;;;;;;9.53;76.36;96522.63;5069628;28;20057;-62
2022/02/17 07:58:27;;;;;;;40.60;21.77;;;;;;;9.71;76.26;96520.91;5071993;28;20048;-60
2022/02/17 08:00:55;;;;;;;38.42;18.98;;;;;;;9.18;76.18;96439.31;5072003;28;20048;-61
2022/02/17 08:03:22;;;;;;;38.45;17.70;;;;;;;9.68;76.62;96502.31;5077578;28;20419;-60
2022/02/17 08:05:49;;;;;;;41.30;19.90;;;;;;;8.97;77.59;96403.13;5066327;28;20059;-59
2022/02/17 08:08:17;;;;;;;35.83;16.50;;;;;;;9.04;81.37;96475.03;5074992;28;20489;-59
2022/02/17 08:10:44;;;;;;;35.83;16.55;;;;;;;9.84;80.96;96536.06;5079154;28;20130;-60
2022/02/17 08:13:11;;;;;;;34.90;16.67;;;;;;;10.07;80.75;96533.19;5072371;28;20086;-61
2022/02/17 08:15:40;;;;;;;41.88;21.17;;;;;;;10.40;79.91;96531.16;5094966;28;20049;-63
2022/02/17 08:18:07;;;;;;;36.85;16.35;;;;;;;10.41;79.94;96516.16;5066864;28;20044;-60
2022/02/17 08:20:34;;;;;;;31.83;14.20;;;;;;;10.51;78.59;96515.44;5070241;28;20481;-63
2022/02/17 08:23:01;;;;;;;31.48;14.52;;;;;;;10.26;77.15;96436.91;5071851;28;20082;-60
2022/02/17 08:25:27;;;;;;;29.27;14.07;;;;;;;10.81;76.51;96522.78;5072474;28;20052;-62
2022/02/17 08:27:55;;;;;;;30.58;13.20;;;;;;;10.23;77.85;96468.13;5074718;28;20469;-57
2022/02/17 08:30:23;;;;;;;33.83;17.48;;;;;;;10.91;76.88;96511.78;5075861;28;20045;-56
2022/02/17 08:32:55;;;;;;;29.85;14.10;;;;;;;10.99;76.01;96512.63;5079309;28;20055;-64
2022/02/17 08:35:24;;;;;;;34.30;14.82;;;;;;;11.30;75.62;96500.94;5070628;28;20113;-62
2022/02/17 08:37:50;;;;;;;23.60;12.10;;;;;;;11.06;75.43;96490.50;5074294;28;20052;-60
2022/02/17 08:40:17;;;;;;;25.48;12.55;;;;;;;10.81;75.14;96461.84;5069026;28;20514;-58
2022/02/17 08:42:44;;;;;;;27.65;12.88;;;;;;;11.33;74.17;96500.97;5079080;28;20058;-58
2022/02/17 08:45:11;;;;;;;21.88;11.40;;;;;;;11.48;72.73;96488.75;5066071;28;20049;-57
2022/02/17 08:47:39;;;;;;;24.10;12.90;;;;;;;11.53;72.93;96493.94;5076463;28;20058;-58
2022/02/17 08:50:09;;;;;;;35.03;16.35;;;;;;;11.35;71.96;96432.03;5084138;28;20578;-60
2022/02/17 08:52:37;;;;;;;28.20;13.18;;;;;;;11.71;70.94;96441.31;5085782;28;20504;-58
2022/02/17 08:55:06;;;;;;;30.05;12.20;;;;;;;11.92;70.70;96478.22;5084389;28;20155;-60
2022/02/17 08:57:36;;;;;;;23.02;11.90;;;;;;;11.62;71.77;96463.03;5085457;28;20109;-60
2022/02/17 09:00:04;;;;;;;24.33;12.23;;;;;;;11.43;71.93;96455.06;5085751;28;20048;-60
2022/02/17 09:02:31;;;;;;;27.30;13.63;;;;;;;11.84;71.21;96470.28;5085531;28;20082;-60
2022/02/17 09:04:57;;;;;;;29.95;13.13;;;;;;;11.61;70.91;96428.16;5086090;28;20590;-60
2022/02/17 09:07:24;;;;;;;50.60;20.75;;;;;;;12.19;70.10;96442.59;5084154;28;20044;-59
2022/02/17 09:09:51;;;;;;;27.50;15.85;;;;;;;12.10;70.05;96445.75;5085400;28;20044;-60
2022/02/17 09:12:19;;;;;;;24.98;12.52;;;;;;;11.66;70.75;96425.06;5085440;28;20054;-62
2022/02/17 09:14:45;;;;;;;28.33;13.02;;;;;;;12.22;70.19;96452.13;5084762;28;20052;-58
2022/02/17 09:17:12;;;;;;;21.65;11.73;;;;;;;12.42;69.00;96445.00;5077210;28;20413;-57
2022/02/17 09:19:41;;;;;;;27.80;14.00;;;;;;;12.30;67.53;96382.28;5094332;28;20464;-64
2022/02/17 09:22:08;;;;;;;22.02;11.55;;;;;;;12.88;65.90;96446.53;5075284;28;20048;-57
2022/02/17 09:24:35;;;;;;;19.83;9.50;;;;;;;12.91;65.56;96448.53;5072140;28;20064;-63
2022/02/17 09:27:02;;;;;;;19.23;10.10;;;;;;;12.91;65.39;96429.06;5070894;28;20048;-61
2022/02/17 09:29:29;;;;;;;20.33;10.00;;;;;;;13.03;65.20;96437.00;5075273;28;20078;-59
2022/02/17 09:32:15;;;;;;;25.75;11.55;;;;;;;12.93;64.07;96379.41;5067764;28;20509;-62
2022/02/17 09:34:42;;;;;;;20.00;10.02;;;;;;;12.98;64.46;96415.16;5076614;28;20079;-68
2022/02/17 09:37:09;;;;;;;25.75;10.90;;;;;;;13.17;64.62;96445.31;5074314;28;20052;-65
2022/02/17 09:39:36;;;;;;;24.00;11.40;;;;;;;13.02;64.06;96413.19;5071082;28;20049;-65
2022/02/17 09:42:06;;;;;;;20.23;10.45;;;;;;;13.14;63.84;96421.09;5074343;28;20585;-65
2022/02/17 09:44:35;;;;;;;21.73;11.30;;;;;;;11.19;63.23;96115.56;5075057;28;20052;-62
2022/02/17 09:47:04;;;;;;;19.90;9.15;;;;;;;12.64;63.80;96344.56;5071689;28;20075;-71
2022/02/17 09:49:32;;;;;;;18.85;9.10;;;;;;;12.63;64.75;96429.09;5074273;28;20058;-71
2022/02/17 09:51:59;;;;;;;17.15;8.75;;;;;;;12.71;63.61;96414.00;5070484;28;20507;-61
2022/02/17 09:54:26;;;;;;;21.05;9.52;;;;;;;12.04;63.93;96282.78;5079204;28;20518;-60
2022/02/17 09:56:54;;;;;;;36.08;15.60;;;;;;;13.03;64.20;96397.28;5071146;28;20044;-58
2022/02/17 09:59:23;;;;;;;41.63;17.70;;;;;;;13.31;62.89;96388.84;5081274;28;20056;-69
2022/02/17 10:01:56;;;;;;;16.83;8.80;;;;;;;13.12;60.71;96373.41;5074166;28;20052;-59
2022/02/17 10:04:25;;;;;;;;;;;;;;;13.70;60.07;96365.19;5069544;28;20060;-62
2022/02/17 10:06:57;;;;;;;14.98;6.47;;;;;;;13.72;57.98;96366.78;5069830;28;20038;-63
2022/02/17 10:09:34;;;;;;;11.82;6.60;;;;;;;14.00;56.97;96333.16;5073727;28;20052;-67
2022/02/17 10:12:02;;;;;;;15.35;5.93;;;;;;;13.99;56.19;96292.63;5064052;28;20175;-58
2022/02/17 10:14:29;;;;;;;16.55;6.70;;;;;;;13.88;55.57;96253.72;5063814;28;20056;-66
2022/02/17 10:17:06;;;;;;;13.52;6.85;;;;;;;14.48;55.58;96326.41;5061977;28;20525;-66
2022/02/17 10:19:47;;;;;;;14.60;6.63;;;;;;;14.64;54.87;96317.47;5064837;28;20063;-66
2022/02/17 10:22:15;;;;;;;14.20;7.35;;;;;;;14.83;54.31;96314.09;5063989;28;20055;-60
2022/02/17 10:24:45;;;;;;;16.88;6.68;;;;;;;14.78;54.05;96300.59;5063510;28;20614;-61
2022/02/17 10:27:14;;;;;;;15.98;6.38;;;;;;;14.88;53.39;96294.13;5064165;28;20495;-67
2022/02/17 10:30:01;;;;;;;18.45;7.40;;;;;;;14.92;53.41;96280.94;5063811;28;20059;-67
2022/02/17 10:32:28;;;;;;;16.42;6.95;;;;;;;14.97;53.65;96275.66;5063509;28;20059;-67
2022/02/17 10:35:12;;;;;;;11.25;6.15;;;;;;;14.66;53.66;96234.25;5063318;28;20451;-67
2022/02/17 10:37:46;;;;;;;16.00;7.40;;;;;;;14.66;54.41;96276.84;5061813;28;20862;-67
2022/02/17 10:40:22;;;;;;;17.25;8.10;;;;;;;14.51;54.43;96269.06;5062626;28;20052;-57
2022/02/17 10:43:09;;;;;;;14.77;7.72;;;;;;;14.60;55.12;96272.13;5062931;28;20604;-67
2022/02/17 10:45:44;;;;;;;15.50;7.43;;;;;;;14.45;55.15;96270.69;5063677;28;20673;-57
2022/02/17 10:48:23;;;;;;;18.42;8.93;;;;;;;14.53;55.15;96266.63;5078971;28;20051;-63
2022/02/17 10:51:05;;;;;;;16.48;8.00;;;;;;;14.56;55.49;96265.78;5082122;28;20134;-66
2022/02/17 10:53:35;;;;;;;23.25;9.50;;;;;;;13.83;55.79;96122.53;5083000;28;20066;-65
2022/02/17 10:56:05;;;;;;;16.23;9.10;;;;;;;14.77;55.74;96251.63;5083918;28;20048;-66
2022/02/17 10:58:36;;;;;;;16.45;6.68;;;;;;;14.97;53.43;96252.56;5081702;28;20075;-66
2022/02/17 11:01:06;;;;;;;10.25;5.40;;;;;;;15.21;50.58;96240.28;5083947;28;20070;-57
2022/02/17 11:03:34;;;;;;;12.38;6.10;;;;;;;15.38;49.59;96239.28;5083192;28;20048;-66
2022/02/17 11:06:09;;;;;;;;;;;;;;;15.34;48.48;96232.13;5084707;28;20064;-67
2022/02/17 11:08:37;;;;;;;11.00;5.43;;;;;;;15.09;49.23;96185.06;5083166;28;19930;-58
2022/02/17 11:11:04;;;;;;;11.18;4.72;;;;;;;15.30;48.25;96232.19;5083605;28;20044;-61
2022/02/17 11:13:33;;;;;;;10.40;5.38;;;;;;;15.31;48.67;96239.34;5083108;28;20063;-66
2022/02/17 11:16:07;;;;;;;11.88;5.60;;;;;;;15.19;48.60;96234.31;5079265;28;20071;-59
2022/02/17 11:18:35;;;;;;;13.98;6.78;;;;;;;14.68;48.54;96167.72;5075277;28;20179;-68
2022/02/17 11:21:02;;;;;;;11.00;5.53;;;;;;;14.96;48.42;96181.28;5074348;28;20215;-73
2022/02/17 11:23:36;;;;;;;14.48;5.72;;;;;;;15.32;48.64;96224.19;5073171;28;20067;-69
2022/02/17 11:26:20;;;;;;;13.43;5.97;;;;;;;15.37;48.43;96220.13;5071721;28;20048;-61
2022/02/17 11:28:46;;;;;;;;;;;;;;;15.34;48.27;96221.78;5076289;28;20137;-59